sensor_id;sensor_type;location;lat;lon;timestamp;P1;durP1;ratioP1;P2;durP2;ratioP2
76752;SDS011;65687;51.308;16.916;2023-06-26T00:01:45;7.00;;;5.00;;
76752;SDS011;65687;51.308;16.916;2023-06-26T00:06:47;7.80;;;4.70;;
76752;SDS011;65687;51.308;16.916;2023-06-26T00:11:48;6.70;;;4.70;;
76752;SDS011;65687;51.308;16.916;2023-06-26T00:16:50;6.90;;;5.40;;
76752;SDS011;65687;51.308;16.916;2023-06-26T00:21:51;8.30;;;5.50;;
76752;SDS011;65687;51.308;16.916;2023-06-26T00:26:53;9.60;;;5.70;;
76752;SDS011;65687;51.308;16.916;2023-06-26T00:31:54;6.90;;;5.30;;
76752;SDS011;65687;51.308;16.916;2023-06-26T00:36:56;6.90;;;5.40;;
76752;SDS011;65687;51.308;16.916;2023-06-26T00:41:57;9.70;;;6.80;;
76752;SDS011;65687;51.308;16.916;2023-06-26T00:46:59;6.50;;;5.10;;
76752;SDS011;65687;51.308;16.916;2023-06-26T00:52:01;8.70;;;5.40;;
76752;SDS011;65687;51.308;16.916;2023-06-26T00:57:04;8.50;;;6.00;;
76752;SDS011;65687;51.308;16.916;2023-06-26T01:02:06;8.60;;;5.90;;
76752;SDS011;65687;51.308;16.916;2023-06-26T01:07:07;7.40;;;5.10;;
76752;SDS011;65687;51.308;16.916;2023-06-26T01:12:09;10.50;;;7.20;;
76752;SDS011;65687;51.308;16.916;2023-06-26T01:17:11;9.70;;;6.20;;
76752;SDS011;65687;51.308;16.916;2023-06-26T01:27:46;8.30;;;5.90;;
76752;SDS011;65687;51.308;16.916;2023-06-26T01:32:50;9.50;;;6.40;;
76752;SDS011;65687;51.308;16.916;2023-06-26T01:37:52;9.10;;;6.60;;
76752;SDS011;65687;51.308;16.916;2023-06-26T01:42:53;10.10;;;6.10;;
76752;SDS011;65687;51.308;16.916;2023-06-26T01:47:56;9.20;;;6.60;;
76752;SDS011;65687;51.308;16.916;2023-06-26T01:53:04;9.00;;;7.00;;
76752;SDS011;65687;51.308;16.916;2023-06-26T01:58:11;9.00;;;7.20;;
76752;SDS011;65687;51.308;16.916;2023-06-26T02:03:15;9.70;;;6.80;;
76752;SDS011;65687;51.308;16.916;2023-06-26T02:08:17;9.60;;;6.40;;
76752;SDS011;65687;51.308;16.916;2023-06-26T02:13:19;8.20;;;6.20;;
76752;SDS011;65687;51.308;16.916;2023-06-26T02:18:20;9.10;;;6.30;;
76752;SDS011;65687;51.308;16.916;2023-06-26T02:23:25;9.60;;;7.80;;
76752;SDS011;65687;51.308;16.916;2023-06-26T02:28:27;12.30;;;7.40;;
76752;SDS011;65687;51.308;16.916;2023-06-26T02:33:28;8.50;;;6.70;;
76752;SDS011;65687;51.308;16.916;2023-06-26T02:38:30;9.20;;;6.30;;
76752;SDS011;65687;51.308;16.916;2023-06-26T02:43:31;9.90;;;7.10;;
76752;SDS011;65687;51.308;16.916;2023-06-26T02:48:33;14.00;;;8.00;;
76752;SDS011;65687;51.308;16.916;2023-06-26T02:53:34;11.90;;;7.70;;
76752;SDS011;65687;51.308;16.916;2023-06-26T02:58:36;10.40;;;7.40;;
76752;SDS011;65687;51.308;16.916;2023-06-26T03:03:37;10.50;;;7.20;;
76752;SDS011;65687;51.308;16.916;2023-06-26T03:08:42;9.90;;;7.20;;
76752;SDS011;65687;51.308;16.916;2023-06-26T03:13:43;11.00;;;7.10;;
76752;SDS011;65687;51.308;16.916;2023-06-26T03:18:45;11.10;;;7.80;;
76752;SDS011;65687;51.308;16.916;2023-06-26T03:23:46;9.60;;;7.00;;
76752;SDS011;65687;51.308;16.916;2023-06-26T03:28:48;11.10;;;8.00;;
76752;SDS011;65687;51.308;16.916;2023-06-26T03:33:49;9.20;;;6.60;;
76752;SDS011;65687;51.308;16.916;2023-06-26T03:38:51;10.50;;;7.20;;
76752;SDS011;65687;51.308;16.916;2023-06-26T03:43:54;9.50;;;6.80;;
76752;SDS011;65687;51.308;16.916;2023-06-26T03:48:57;8.80;;;6.60;;
76752;SDS011;65687;51.308;16.916;2023-06-26T03:53:59;10.00;;;7.10;;
76752;SDS011;65687;51.308;16.916;2023-06-26T03:59:00;10.50;;;7.50;;
76752;SDS011;65687;51.308;16.916;2023-06-26T04:04:02;9.20;;;7.40;;
76752;SDS011;65687;51.308;16.916;2023-06-26T04:09:04;10.30;;;7.10;;
76752;SDS011;65687;51.308;16.916;2023-06-26T04:14:05;8.60;;;7.40;;
76752;SDS011;65687;51.308;16.916;2023-06-26T04:19:07;8.30;;;7.20;;
76752;SDS011;65687;51.308;16.916;2023-06-26T04:24:11;8.80;;;7.30;;
76752;SDS011;65687;51.308;16.916;2023-06-26T04:29:12;8.80;;;6.80;;
76752;SDS011;65687;51.308;16.916;2023-06-26T04:34:14;8.70;;;7.10;;
76752;SDS011;65687;51.308;16.916;2023-06-26T04:39:15;9.10;;;7.20;;
76752;SDS011;65687;51.308;16.916;2023-06-26T04:44:17;9.50;;;7.60;;
76752;SDS011;65687;51.308;16.916;2023-06-26T04:49:18;9.20;;;6.70;;
76752;SDS011;65687;51.308;16.916;2023-06-26T04:54:21;8.60;;;6.30;;
76752;SDS011;65687;51.308;16.916;2023-06-26T04:59:22;9.30;;;6.90;;
76752;SDS011;65687;51.308;16.916;2023-06-26T05:04:24;9.90;;;7.40;;
76752;SDS011;65687;51.308;16.916;2023-06-26T05:09:25;10.10;;;7.20;;
76752;SDS011;65687;51.308;16.916;2023-06-26T05:14:27;8.50;;;6.50;;
76752;SDS011;65687;51.308;16.916;2023-06-26T05:19:28;9.30;;;7.20;;
76752;SDS011;65687;51.308;16.916;2023-06-26T05:24:30;9.50;;;7.40;;
76752;SDS011;65687;51.308;16.916;2023-06-26T05:29:32;9.40;;;7.00;;
76752;SDS011;65687;51.308;16.916;2023-06-26T05:34:34;12.10;;;7.90;;
76752;SDS011;65687;51.308;16.916;2023-06-26T05:44:38;12.20;;;9.10;;
76752;SDS011;65687;51.308;16.916;2023-06-26T05:49:39;14.10;;;8.80;;
76752;SDS011;65687;51.308;16.916;2023-06-26T05:54:41;12.50;;;8.50;;
76752;SDS011;65687;51.308;16.916;2023-06-26T05:59:43;10.00;;;7.40;;
76752;SDS011;65687;51.308;16.916;2023-06-26T06:04:46;11.90;;;8.90;;
76752;SDS011;65687;51.308;16.916;2023-06-26T06:14:49;12.70;;;9.30;;
76752;SDS011;65687;51.308;16.916;2023-06-26T06:19:50;11.60;;;7.40;;
76752;SDS011;65687;51.308;16.916;2023-06-26T06:24:52;12.90;;;9.10;;
76752;SDS011;65687;51.308;16.916;2023-06-26T06:29:54;11.60;;;8.50;;
76752;SDS011;65687;51.308;16.916;2023-06-26T06:34:55;11.30;;;7.90;;
76752;SDS011;65687;51.308;16.916;2023-06-26T06:39:57;11.70;;;8.30;;
76752;SDS011;65687;51.308;16.916;2023-06-26T06:45:01;11.10;;;7.90;;
76752;SDS011;65687;51.308;16.916;2023-06-26T06:50:04;11.20;;;8.10;;
76752;SDS011;65687;51.308;16.916;2023-06-26T06:55:09;10.60;;;7.70;;
76752;SDS011;65687;51.308;16.916;2023-06-26T07:00:11;11.30;;;7.10;;
76752;SDS011;65687;51.308;16.916;2023-06-26T07:05:16;9.80;;;7.50;;
76752;SDS011;65687;51.308;16.916;2023-06-26T07:10:17;11.80;;;7.10;;
76752;SDS011;65687;51.308;16.916;2023-06-26T07:15:19;8.60;;;6.40;;
76752;SDS011;65687;51.308;16.916;2023-06-26T07:20:20;8.50;;;6.40;;
76752;SDS011;65687;51.308;16.916;2023-06-26T07:25:22;7.80;;;5.80;;
76752;SDS011;65687;51.308;16.916;2023-06-26T07:35:25;9.00;;;6.10;;
76752;SDS011;65687;51.308;16.916;2023-06-26T07:40:28;6.40;;;5.10;;
76752;SDS011;65687;51.308;16.916;2023-06-26T07:45:30;6.40;;;5.10;;
76752;SDS011;65687;51.308;16.916;2023-06-26T07:55:33;7.40;;;4.90;;
76752;SDS011;65687;51.308;16.916;2023-06-26T08:05:36;8.00;;;5.00;;
76752;SDS011;65687;51.308;16.916;2023-06-26T08:10:37;7.60;;;5.00;;
76752;SDS011;65687;51.308;16.916;2023-06-26T08:15:39;5.00;;;3.90;;
76752;SDS011;65687;51.308;16.916;2023-06-26T08:20:41;5.40;;;4.10;;
76752;SDS011;65687;51.308;16.916;2023-06-26T08:25:42;7.10;;;4.50;;
76752;SDS011;65687;51.308;16.916;2023-06-26T08:30:44;4.90;;;3.90;;
76752;SDS011;65687;51.308;16.916;2023-06-26T08:35:46;5.30;;;3.60;;
76752;SDS011;65687;51.308;16.916;2023-06-26T08:40:47;5.10;;;4.00;;
76752;SDS011;65687;51.308;16.916;2023-06-26T08:45:49;5.90;;;4.10;;
76752;SDS011;65687;51.308;16.916;2023-06-26T08:50:54;5.20;;;3.90;;
76752;SDS011;65687;51.308;16.916;2023-06-26T08:55:57;6.00;;;4.30;;
76752;SDS011;65687;51.308;16.916;2023-06-26T09:01:00;4.80;;;3.80;;
76752;SDS011;65687;51.308;16.916;2023-06-26T09:06:02;4.80;;;4.00;;
76752;SDS011;65687;51.308;16.916;2023-06-26T09:11:04;4.20;;;3.40;;
76752;SDS011;65687;51.308;16.916;2023-06-26T09:16:06;4.40;;;3.80;;
76752;SDS011;65687;51.308;16.916;2023-06-26T09:21:09;6.60;;;4.10;;
76752;SDS011;65687;51.308;16.916;2023-06-26T09:26:13;4.70;;;3.80;;
76752;SDS011;65687;51.308;16.916;2023-06-26T09:31:15;3.90;;;3.50;;
76752;SDS011;65687;51.308;16.916;2023-06-26T09:36:19;4.60;;;3.90;;
76752;SDS011;65687;51.308;16.916;2023-06-26T09:41:26;4.10;;;3.50;;
76752;SDS011;65687;51.308;16.916;2023-06-26T09:46:29;6.10;;;3.80;;
76752;SDS011;65687;51.308;16.916;2023-06-26T09:51:32;5.20;;;3.70;;
76752;SDS011;65687;51.308;16.916;2023-06-26T09:56:37;6.60;;;3.90;;
76752;SDS011;65687;51.308;16.916;2023-06-26T10:01:40;5.70;;;3.90;;
76752;SDS011;65687;51.308;16.916;2023-06-26T10:06:45;6.20;;;3.90;;
76752;SDS011;65687;51.308;16.916;2023-06-26T10:11:51;5.00;;;3.80;;
76752;SDS011;65687;51.308;16.916;2023-06-26T10:17:18;5.80;;;4.00;;
76752;SDS011;65687;51.308;16.916;2023-06-26T10:22:22;5.70;;;3.60;;
76752;SDS011;65687;51.308;16.916;2023-06-26T10:27:31;4.90;;;3.80;;
76752;SDS011;65687;51.308;16.916;2023-06-26T10:32:37;5.90;;;3.90;;
76752;SDS011;65687;51.308;16.916;2023-06-26T10:37:48;4.70;;;3.60;;
76752;SDS011;65687;51.308;16.916;2023-06-26T10:42:51;4.70;;;3.40;;
76752;SDS011;65687;51.308;16.916;2023-06-26T10:48:07;4.60;;;3.40;;
76752;SDS011;65687;51.308;16.916;2023-06-26T11:03:44;4.80;;;3.90;;
76752;SDS011;65687;51.308;16.916;2023-06-26T11:08:48;5.10;;;3.80;;
76752;SDS011;65687;51.308;16.916;2023-06-26T11:13:50;4.20;;;3.40;;
76752;SDS011;65687;51.308;16.916;2023-06-26T11:18:52;4.50;;;3.70;;
76752;SDS011;65687;51.308;16.916;2023-06-26T11:23:59;4.00;;;3.60;;
76752;SDS011;65687;51.308;16.916;2023-06-26T11:29:03;4.60;;;3.90;;
76752;SDS011;65687;51.308;16.916;2023-06-26T11:34:06;4.90;;;3.80;;
76752;SDS011;65687;51.308;16.916;2023-06-26T11:39:10;4.60;;;3.60;;
76752;SDS011;65687;51.308;16.916;2023-06-26T11:44:12;5.00;;;3.60;;
76752;SDS011;65687;51.308;16.916;2023-06-26T11:49:16;5.90;;;3.80;;
76752;SDS011;65687;51.308;16.916;2023-06-26T11:54:25;5.00;;;3.60;;
76752;SDS011;65687;51.308;16.916;2023-06-26T11:59:38;5.00;;;3.30;;
76752;SDS011;65687;51.308;16.916;2023-06-26T12:04:41;4.70;;;4.00;;
76752;SDS011;65687;51.308;16.916;2023-06-26T12:09:45;5.90;;;3.80;;
76752;SDS011;65687;51.308;16.916;2023-06-26T12:14:49;4.70;;;3.50;;
76752;SDS011;65687;51.308;16.916;2023-06-26T12:19:52;4.40;;;3.70;;
76752;SDS011;65687;51.308;16.916;2023-06-26T12:24:56;4.70;;;3.70;;
76752;SDS011;65687;51.308;16.916;2023-06-26T12:29:58;5.10;;;3.80;;
76752;SDS011;65687;51.308;16.916;2023-06-26T12:35:00;4.40;;;3.40;;
76752;SDS011;65687;51.308;16.916;2023-06-26T12:40:02;5.40;;;3.40;;
76752;SDS011;65687;51.308;16.916;2023-06-26T12:45:11;3.70;;;3.10;;
76752;SDS011;65687;51.308;16.916;2023-06-26T12:50:16;4.90;;;3.60;;
76752;SDS011;65687;51.308;16.916;2023-06-26T12:55:19;5.00;;;3.40;;
76752;SDS011;65687;51.308;16.916;2023-06-26T13:00:22;4.00;;;3.30;;
76752;SDS011;65687;51.308;16.916;2023-06-26T13:05:25;4.40;;;3.40;;
76752;SDS011;65687;51.308;16.916;2023-06-26T13:10:26;5.40;;;3.30;;
76752;SDS011;65687;51.308;16.916;2023-06-26T13:15:30;4.40;;;3.10;;
76752;SDS011;65687;51.308;16.916;2023-06-26T13:20:32;3.70;;;3.30;;
76752;SDS011;65687;51.308;16.916;2023-06-26T13:25:33;4.20;;;3.20;;
76752;SDS011;65687;51.308;16.916;2023-06-26T13:30:36;4.00;;;3.10;;
76752;SDS011;65687;51.308;16.916;2023-06-26T13:35:37;3.50;;;2.70;;
76752;SDS011;65687;51.308;16.916;2023-06-26T13:40:39;4.20;;;3.20;;
76752;SDS011;65687;51.308;16.916;2023-06-26T13:45:40;4.30;;;3.30;;
76752;SDS011;65687;51.308;16.916;2023-06-26T13:50:42;3.70;;;3.20;;
76752;SDS011;65687;51.308;16.916;2023-06-26T13:55:44;3.80;;;3.30;;
76752;SDS011;65687;51.308;16.916;2023-06-26T14:00:45;5.00;;;3.10;;
76752;SDS011;65687;51.308;16.916;2023-06-26T14:05:48;4.30;;;3.70;;
76752;SDS011;65687;51.308;16.916;2023-06-26T14:10:50;3.40;;;2.90;;
76752;SDS011;65687;51.308;16.916;2023-06-26T14:15:51;4.30;;;3.20;;
76752;SDS011;65687;51.308;16.916;2023-06-26T14:20:53;3.90;;;3.00;;
76752;SDS011;65687;51.308;16.916;2023-06-26T14:25:55;4.20;;;3.40;;
76752;SDS011;65687;51.308;16.916;2023-06-26T14:30:57;3.50;;;3.00;;
76752;SDS011;65687;51.308;16.916;2023-06-26T14:35:58;3.80;;;3.30;;
76752;SDS011;65687;51.308;16.916;2023-06-26T14:41:00;3.80;;;2.90;;
76752;SDS011;65687;51.308;16.916;2023-06-26T14:46:02;3.40;;;3.00;;
76752;SDS011;65687;51.308;16.916;2023-06-26T14:51:04;4.90;;;3.30;;
76752;SDS011;65687;51.308;16.916;2023-06-26T14:56:06;3.90;;;3.30;;
76752;SDS011;65687;51.308;16.916;2023-06-26T15:01:09;4.40;;;3.30;;
76752;SDS011;65687;51.308;16.916;2023-06-26T15:06:11;4.50;;;3.40;;
76752;SDS011;65687;51.308;16.916;2023-06-26T15:11:12;4.90;;;3.30;;
76752;SDS011;65687;51.308;16.916;2023-06-26T15:16:14;4.40;;;3.60;;
76752;SDS011;65687;51.308;16.916;2023-06-26T15:21:15;4.00;;;2.80;;
76752;SDS011;65687;51.308;16.916;2023-06-26T15:26:17;3.90;;;2.90;;
76752;SDS011;65687;51.308;16.916;2023-06-26T15:31:18;4.50;;;3.20;;
76752;SDS011;65687;51.308;16.916;2023-06-26T15:36:20;4.20;;;3.10;;
76752;SDS011;65687;51.308;16.916;2023-06-26T15:41:22;3.60;;;3.00;;
76752;SDS011;65687;51.308;16.916;2023-06-26T15:46:24;4.40;;;3.20;;
76752;SDS011;65687;51.308;16.916;2023-06-26T15:51:26;4.70;;;3.80;;
76752;SDS011;65687;51.308;16.916;2023-06-26T15:56:27;5.00;;;3.10;;
76752;SDS011;65687;51.308;16.916;2023-06-26T16:01:29;4.50;;;3.40;;
76752;SDS011;65687;51.308;16.916;2023-06-26T16:06:31;4.90;;;3.70;;
76752;SDS011;65687;51.308;16.916;2023-06-26T16:11:32;4.90;;;3.40;;
76752;SDS011;65687;51.308;16.916;2023-06-26T16:16:34;4.70;;;3.50;;
76752;SDS011;65687;51.308;16.916;2023-06-26T16:21:35;4.00;;;3.50;;
76752;SDS011;65687;51.308;16.916;2023-06-26T16:26:37;4.70;;;3.80;;
76752;SDS011;65687;51.308;16.916;2023-06-26T16:31:38;4.90;;;3.60;;
76752;SDS011;65687;51.308;16.916;2023-06-26T16:36:40;3.60;;;3.10;;
76752;SDS011;65687;51.308;16.916;2023-06-26T16:41:42;4.10;;;3.70;;
76752;SDS011;65687;51.308;16.916;2023-06-26T16:46:44;4.90;;;3.70;;
76752;SDS011;65687;51.308;16.916;2023-06-26T16:51:45;5.80;;;3.40;;
76752;SDS011;65687;51.308;16.916;2023-06-26T16:56:47;4.00;;;3.30;;
76752;SDS011;65687;51.308;16.916;2023-06-26T17:01:48;3.90;;;3.50;;
76752;SDS011;65687;51.308;16.916;2023-06-26T17:06:50;5.80;;;4.30;;
76752;SDS011;65687;51.308;16.916;2023-06-26T17:11:51;4.60;;;3.70;;
76752;SDS011;65687;51.308;16.916;2023-06-26T17:16:53;6.10;;;3.30;;
76752;SDS011;65687;51.308;16.916;2023-06-26T17:21:55;4.60;;;3.60;;
76752;SDS011;65687;51.308;16.916;2023-06-26T17:27:12;4.30;;;3.40;;
76752;SDS011;65687;51.308;16.916;2023-06-26T17:32:16;4.10;;;3.70;;
76752;SDS011;65687;51.308;16.916;2023-06-26T17:37:19;4.40;;;3.80;;
76752;SDS011;65687;51.308;16.916;2023-06-26T17:42:24;4.80;;;3.50;;
76752;SDS011;65687;51.308;16.916;2023-06-26T17:47:25;4.80;;;3.50;;
76752;SDS011;65687;51.308;16.916;2023-06-26T17:52:28;3.60;;;3.10;;
76752;SDS011;65687;51.308;16.916;2023-06-26T17:57:30;5.50;;;3.50;;
76752;SDS011;65687;51.308;16.916;2023-06-26T18:02:31;4.90;;;3.90;;
76752;SDS011;65687;51.308;16.916;2023-06-26T18:07:33;5.30;;;3.70;;
76752;SDS011;65687;51.308;16.916;2023-06-26T18:12:37;5.20;;;3.90;;
76752;SDS011;65687;51.308;16.916;2023-06-26T18:17:38;5.20;;;3.80;;
76752;SDS011;65687;51.308;16.916;2023-06-26T18:22:40;6.00;;;3.70;;
76752;SDS011;65687;51.308;16.916;2023-06-26T18:27:42;7.50;;;4.60;;
76752;SDS011;65687;51.308;16.916;2023-06-26T18:32:43;5.40;;;4.40;;
76752;SDS011;65687;51.308;16.916;2023-06-26T18:37:46;4.50;;;3.90;;
76752;SDS011;65687;51.308;16.916;2023-06-26T18:42:47;5.60;;;3.90;;
76752;SDS011;65687;51.308;16.916;2023-06-26T18:47:49;5.00;;;4.00;;
76752;SDS011;65687;51.308;16.916;2023-06-26T18:52:53;5.10;;;3.80;;
76752;SDS011;65687;51.308;16.916;2023-06-26T18:57:55;6.30;;;3.80;;
76752;SDS011;65687;51.308;16.916;2023-06-26T19:02:57;6.60;;;4.10;;
76752;SDS011;65687;51.308;16.916;2023-06-26T19:08:00;6.00;;;4.30;;
76752;SDS011;65687;51.308;16.916;2023-06-26T19:13:01;5.60;;;3.70;;
76752;SDS011;65687;51.308;16.916;2023-06-26T19:18:03;5.20;;;4.20;;
76752;SDS011;65687;51.308;16.916;2023-06-26T19:23:05;7.20;;;4.40;;
76752;SDS011;65687;51.308;16.916;2023-06-26T19:28:06;4.10;;;3.20;;
76752;SDS011;65687;51.308;16.916;2023-06-26T19:33:09;5.70;;;3.00;;
76752;SDS011;65687;51.308;16.916;2023-06-26T19:38:13;5.70;;;3.00;;
76752;SDS011;65687;51.308;16.916;2023-06-26T19:43:17;7.00;;;3.10;;
76752;SDS011;65687;51.308;16.916;2023-06-26T19:53:20;5.80;;;3.20;;
76752;SDS011;65687;51.308;16.916;2023-06-26T19:58:22;7.10;;;3.00;;
76752;SDS011;65687;51.308;16.916;2023-06-26T20:08:25;8.90;;;4.70;;
76752;SDS011;65687;51.308;16.916;2023-06-26T20:18:28;5.70;;;4.10;;
76752;SDS011;65687;51.308;16.916;2023-06-26T20:23:29;5.70;;;3.80;;
76752;SDS011;65687;51.308;16.916;2023-06-26T20:28:31;7.70;;;3.80;;
76752;SDS011;65687;51.308;16.916;2023-06-26T20:33:32;7.90;;;4.60;;
76752;SDS011;65687;51.308;16.916;2023-06-26T20:38:34;7.10;;;4.50;;
76752;SDS011;65687;51.308;16.916;2023-06-26T20:43:35;7.60;;;4.30;;
76752;SDS011;65687;51.308;16.916;2023-06-26T20:48:37;6.60;;;4.10;;
76752;SDS011;65687;51.308;16.916;2023-06-26T20:53:39;6.10;;;4.40;;
76752;SDS011;65687;51.308;16.916;2023-06-26T20:58:41;7.00;;;4.00;;
76752;SDS011;65687;51.308;16.916;2023-06-26T21:03:42;7.50;;;4.60;;
76752;SDS011;65687;51.308;16.916;2023-06-26T21:08:44;6.40;;;4.40;;
76752;SDS011;65687;51.308;16.916;2023-06-26T21:13:45;5.50;;;4.20;;
76752;SDS011;65687;51.308;16.916;2023-06-26T21:18:47;6.50;;;5.00;;
76752;SDS011;65687;51.308;16.916;2023-06-26T21:23:48;5.50;;;4.70;;
76752;SDS011;65687;51.308;16.916;2023-06-26T21:28:50;5.90;;;3.90;;
76752;SDS011;65687;51.308;16.916;2023-06-26T21:33:51;7.40;;;4.70;;
76752;SDS011;65687;51.308;16.916;2023-06-26T21:38:53;7.10;;;5.70;;
76752;SDS011;65687;51.308;16.916;2023-06-26T21:43:54;7.90;;;6.20;;
76752;SDS011;65687;51.308;16.916;2023-06-26T21:48:56;9.20;;;7.30;;
76752;SDS011;65687;51.308;16.916;2023-06-26T21:53:57;7.90;;;6.60;;
76752;SDS011;65687;51.308;16.916;2023-06-26T21:58:59;9.40;;;7.00;;
76752;SDS011;65687;51.308;16.916;2023-06-26T22:04:00;9.90;;;7.50;;
76752;SDS011;65687;51.308;16.916;2023-06-26T22:14:06;8.30;;;7.20;;
76752;SDS011;65687;51.308;16.916;2023-06-26T22:19:08;8.30;;;7.10;;
76752;SDS011;65687;51.308;16.916;2023-06-26T22:24:10;9.30;;;7.90;;
76752;SDS011;65687;51.308;16.916;2023-06-26T22:29:11;9.70;;;7.30;;
76752;SDS011;65687;51.308;16.916;2023-06-26T22:34:13;10.90;;;7.50;;
76752;SDS011;65687;51.308;16.916;2023-06-26T22:39:15;8.00;;;6.40;;
76752;SDS011;65687;51.308;16.916;2023-06-26T22:44:17;8.90;;;7.50;;
76752;SDS011;65687;51.308;16.916;2023-06-26T22:49:18;9.70;;;7.00;;
76752;SDS011;65687;51.308;16.916;2023-06-26T22:54:20;9.90;;;8.40;;
76752;SDS011;65687;51.308;16.916;2023-06-26T22:59:21;9.20;;;7.30;;
76752;SDS011;65687;51.308;16.916;2023-06-26T23:04:23;8.90;;;8.00;;
76752;SDS011;65687;51.308;16.916;2023-06-26T23:09:27;9.00;;;7.90;;
76752;SDS011;65687;51.308;16.916;2023-06-26T23:14:29;9.40;;;7.40;;
76752;SDS011;65687;51.308;16.916;2023-06-26T23:19:31;9.50;;;7.80;;
76752;SDS011;65687;51.308;16.916;2023-06-26T23:24:34;9.10;;;7.30;;
76752;SDS011;65687;51.308;16.916;2023-06-26T23:29:38;10.30;;;7.80;;
76752;SDS011;65687;51.308;16.916;2023-06-26T23:34:40;8.80;;;7.40;;
76752;SDS011;65687;51.308;16.916;2023-06-26T23:44:46;9.10;;;7.60;;
76752;SDS011;65687;51.308;16.916;2023-06-26T23:49:51;8.10;;;7.10;;
76752;SDS011;65687;51.308;16.916;2023-06-26T23:54:52;10.30;;;7.60;;
